Time;durP1;ratioP1;P1;durP2;ratioP2;P2;SDS_P1;SDS_P2;PMS_P1;PMS_P2;Temp;Humidity;BMP_temperature;BMP_pressure;BME280_temperature;BME280_humidity;BME280_pressure;Samples;Min_cycle;Max_cycle;Signal;HPM_P1;HPM_P2
2022/05/10 00:02:18;;;;;;;4.97;1.87;;;;;;;2.82;79.06;101486.61;1746692;82;20925;-42
2022/05/10 00:04:49;;;;;;;5.45;1.72;;;;;;;2.76;79.51;101485.15;1746725;82;21036;-42
2022/05/10 00:07:16;;;;;;;4.30;1.80;;;;;;;2.70;79.56;101484.55;1746790;82;21138;-42
2022/05/10 00:09:42;;;;;;;3.30;2.10;;;;;;;2.68;79.88;101489.17;1746759;80;21443;-42
2022/05/10 00:12:11;;;;;;;2.60;1.82;;;;;;;2.66;80.18;101485.27;1725963;82;20881;-42
2022/05/10 00:14:38;;;;;;;5.85;1.90;;;;;;;2.63;80.26;101488.14;1725832;81;21486;-42
2022/05/10 00:17:05;;;;;;;4.90;2.25;;;;;;;2.59;80.39;101487.20;1746806;82;20908;-42
2022/05/10 00:19:32;;;;;;;1.92;1.82;;;;;;;2.54;80.85;101488.75;1746639;82;22033;-42
2022/05/10 00:21:59;;;;;;;2.62;2.12;;;;;;;2.50;81.37;101482.66;1746652;82;20908;-42
2022/05/10 00:24:25;;;;;;;5.92;2.12;;;;;;;2.45;82.37;101482.93;1750440;81;20932;-42
2022/05/10 00:26:52;;;;;;;4.00;2.25;;;;;;;2.43;82.69;101489.69;1746664;82;20996;-42
2022/05/10 00:29:20;;;;;;;4.67;2.77;;;;;;;2.38;83.28;101492.09;1725642;82;20909;-42
2022/05/10 00:31:47;;;;;;;3.20;2.22;;;;;;;2.35;83.87;101483.44;1746779;82;21146;-42
2022/05/10 00:34:16;;;;;;;6.33;2.00;;;;;;;2.30;84.26;101490.55;1746816;82;20948;-42
2022/05/10 00:36:42;;;;;;;2.15;1.92;;;;;;;2.25;84.46;101490.83;1746668;82;20984;-42
2022/05/10 00:39:10;;;;;;;6.65;2.20;;;;;;;2.22;84.85;101493.67;1746758;82;20932;-42
2022/05/10 00:41:58;;;;;;;2.98;2.55;;;;;;;2.19;85.09;101493.58;1725648;82;21031;-42
2022/05/10 00:44:45;;;;;;;6.15;2.65;;;;;;;2.19;85.58;101491.91;1746846;82;21856;-42
2022/05/10 00:47:47;;;;;;;11.88;2.75;;;;;;;2.16;85.88;101489.26;1746517;82;20991;-42
2022/05/10 00:50:25;;;;;;;5.35;2.55;;;;;;;2.19;86.29;101491.02;1724523;82;20987;-40
2022/05/10 00:53:03;;;;;;;2.40;2.20;;;;;;;2.23;86.65;101482.63;1746666;81;21564;-41
2022/05/10 00:55:38;;;;;;;6.78;2.40;;;;;;;2.27;86.99;101480.23;1746794;82;20967;-41
2022/05/10 00:58:26;;;;;;;2.95;1.92;;;;;;;2.28;87.38;101484.53;1746730;82;21170;-41
2022/05/10 01:00:54;;;;;;;7.37;2.30;;;;;;;2.24;87.56;101489.48;1748804;81;20968;-41
2022/05/10 01:03:53;;;;;;;8.05;2.10;;;;;;;2.22;87.67;101480.50;1746798;80;20936;-42
2022/05/10 01:06:30;;;;;;;2.58;2.08;;;;;;;2.20;87.61;101487.25;1745797;80;20901;-41
2022/05/10 01:09:11;;;;;;;3.10;2.20;;;;;;;2.12;87.48;101481.89;1746915;82;20972;-42
2022/05/10 01:11:45;;;;;;;3.05;2.15;;;;;;;2.08;87.69;101485.56;1746363;80;22449;-42
2022/05/10 01:14:19;;;;;;;2.55;2.10;;;;;;;2.03;87.95;101489.66;1746622;82;20885;-43
2022/05/10 01:16:46;;;;;;;3.02;2.10;;;;;;;1.97;88.39;101486.09;1746420;82;20999;-43
2022/05/10 01:19:13;;;;;;;7.87;2.33;;;;;;;1.94;88.90;101484.70;1725431;82;20982;-41
2022/05/10 01:21:48;;;;;;;7.10;2.20;;;;;;;1.94;89.20;101483.83;1746613;82;20901;-41
2022/05/10 01:24:42;;;;;;;8.27;2.70;;;;;;;1.89;89.38;101487.91;1731655;82;21166;-41
2022/05/10 01:27:34;;;;;;;4.87;1.80;;;;;;;1.84;89.61;101484.80;1746149;82;20960;-41
2022/05/10 01:30:12;;;;;;;6.40;2.10;;;;;;;1.78;89.87;101488.44;1746391;80;20991;-41
2022/05/10 01:36:19;;;;;;;7.62;1.80;;;;;;;1.70;90.68;101488.16;1746807;82;20916;-42
2022/05/10 01:39:30;;;;;;;4.50;2.17;;;;;;;1.65;90.82;101490.09;1746665;82;21162;-42
2022/05/10 01:42:15;;;;;;;2.50;2.15;;;;;;;1.58;91.03;101486.44;1746514;82;21019;-41
2022/05/10 01:44:56;;;;;;;6.00;1.40;;;;;;;1.54;91.56;101484.60;1746863;82;20984;-42
2022/05/10 01:47:40;;;;;;;3.87;1.80;;;;;;;1.49;91.92;101486.12;1748931;80;20979;-41
2022/05/10 01:50:22;;;;;;;5.03;1.70;;;;;;;1.46;92.08;101491.13;1749407;82;20884;-40
2022/05/10 01:53:14;;;;;;;8.88;2.08;;;;;;;1.40;92.31;101487.94;1749382;81;21033;-41
2022/05/10 01:55:47;;;;;;;4.62;2.25;;;;;;;1.36;92.59;101488.23;1697655;82;21039;-42
2022/05/10 01:58:22;;;;;;;2.50;2.30;;;;;;;1.31;93.03;101491.02;1749364;82;21719;-41
2022/05/10 02:00:55;;;;;;;3.90;2.25;;;;;;;1.29;93.35;101493.93;1749315;82;28082;-42
2022/05/10 02:03:35;;;;;;;2.55;2.20;;;;;;;1.27;93.70;101496.44;1722419;82;20940;-41
2022/05/10 02:06:38;;;;;;;2.37;2.15;;;;;;;1.25;93.91;101495.91;1749239;82;21310;-41
2022/05/10 02:09:33;;;;;;;9.93;2.05;;;;;;;1.21;94.03;101494.92;1748739;82;21486;-42
2022/05/10 02:12:20;;;;;;;2.37;2.17;;;;;;;1.18;94.15;101493.95;1749334;82;21023;-43
2022/05/10 02:14:54;;;;;;;4.92;2.90;;;;;;;1.13;94.52;101491.23;1748802;82;20924;-40
2022/05/10 02:17:43;;;;;;;7.45;2.58;;;;;;;1.12;94.76;101489.49;1749388;82;20884;-41
2022/05/10 02:20:15;;;;;;;8.58;2.00;;;;;;;1.12;94.85;101495.87;1749369;82;21162;-41
2022/05/10 02:22:48;;;;;;;2.72;1.87;;;;;;;1.11;94.85;101497.95;1749144;82;21679;-42
2022/05/10 02:25:19;;;;;;;4.72;2.12;;;;;;;1.10;95.06;101487.29;1749314;82;21391;-41
2022/05/10 02:27:51;;;;;;;4.22;2.27;;;;;;;1.09;95.18;101490.23;1749109;81;20959;-41
2022/05/10 02:30:22;;;;;;;4.20;1.92;;;;;;;1.08;95.30;101493.59;1748553;82;20845;-41
2022/05/10 02:33:12;;;;;;;11.18;2.40;;;;;;;1.09;95.49;101499.16;1748198;82;21255;-41
2022/05/10 02:35:25;;;;;;;9.35;2.42;;;;;;;1.10;95.58;101498.34;1744241;82;20928;-41
2022/05/10 02:37:51;;;;;;;4.92;1.80;;;;;;;1.12;95.72;101500.55;1749580;82;21569;-41
2022/05/10 02:40:18;;;;;;;3.12;1.90;;;;;;;1.18;95.76;101502.46;1749409;82;20929;-41
2022/05/10 02:42:48;;;;;;;3.22;2.37;;;;;;;1.21;95.75;101504.27;1749439;82;20956;-41
2022/05/10 02:45:18;;;;;;;2.75;2.00;;;;;;;1.23;95.82;101502.22;1749341;82;21788;-42
2022/05/10 02:47:46;;;;;;;5.22;2.00;;;;;;;1.27;96.01;101510.48;1761625;81;20946;-41
2022/05/10 02:50:29;;;;;;;4.33;2.15;;;;;;;1.28;96.02;101505.84;1763070;81;21012;-42
2022/05/10 02:52:55;;;;;;;3.87;2.27;;;;;;;1.36;96.34;101512.47;1761952;81;21511;-42
2022/05/10 02:55:49;;;;;;;10.28;2.58;;;;;;;1.54;96.93;101504.63;1763151;81;20997;-41
2022/05/10 02:58:33;;;;;;;5.80;1.90;;;;;;;1.71;97.02;101508.16;1763343;81;21908;-41
2022/05/10 03:01:17;;;;;;;5.53;2.30;;;;;;;1.80;96.70;101511.05;1763023;81;20934;-42
2022/05/10 03:03:43;;;;;;;4.12;2.10;;;;;;;1.84;96.73;101508.18;1763168;81;20897;-42
2022/05/10 03:06:21;;;;;;;3.52;2.00;;;;;;;1.91;96.63;101511.42;1762839;81;20901;-42
2022/05/10 03:08:50;;;;;;;4.72;1.72;;;;;;;2.01;96.23;101510.91;1725271;81;21001;-41
2022/05/10 03:11:17;;;;;;;8.68;2.05;;;;;;;2.17;95.25;101503.77;1763125;81;21135;-42
2022/05/10 03:13:44;;;;;;;13.25;2.22;;;;;;;2.38;94.61;101513.81;1763104;80;21008;-42
2022/05/10 03:16:11;;;;;;;2.92;1.72;;;;;;;2.54;94.29;101506.22;1763137;81;20980;-42
2022/05/10 03:18:38;;;;;;;4.70;1.92;;;;;;;2.69;92.63;101504.55;1763105;81;21444;-43
2022/05/10 03:21:04;;;;;;;5.03;1.70;;;;;;;2.87;87.95;101510.63;1763065;81;20924;-43
2022/05/10 03:23:31;;;;;;;3.42;1.60;;;;;;;3.08;86.92;101506.97;1763087;81;21145;-42
2022/05/10 03:25:57;;;;;;;6.58;1.80;;;;;;;3.23;85.18;101510.81;1762872;81;20854;-43
2022/05/10 03:28:25;;;;;;;3.72;1.50;;;;;;;3.32;83.63;101504.67;1763134;81;20992;-40
2022/05/10 03:30:52;;;;;;;2.12;1.92;;;;;;;3.44;82.01;101511.83;1762982;81;20984;-43
2022/05/10 03:33:19;;;;;;;6.20;1.95;;;;;;;3.55;78.39;101506.61;1763057;81;21578;-41
2022/05/10 03:35:45;;;;;;;4.05;1.60;;;;;;;3.69;77.67;101510.82;1737230;81;21044;-42
2022/05/10 03:38:12;;;;;;;11.00;2.08;;;;;;;3.78;76.17;101508.89;1762987;81;20973;-41
2022/05/10 03:40:38;;;;;;;4.50;1.95;;;;;;;4.10;72.07;101512.72;1762845;81;20937;-42
2022/05/10 03:43:08;;;;;;;21.50;1.92;;;;;;;4.10;72.07;101512.72;1763001;81;21424;-42
2022/05/10 03:45:35;;;;;;;6.17;1.45;;;;;;;4.33;71.75;101513.70;1763098;81;20978;-42
2022/05/10 03:48:03;;;;;;;5.25;2.17;;;;;;;4.56;71.78;101508.27;1762803;81;21051;-43
2022/05/10 03:50:30;;;;;;;10.63;2.02;;;;;;;4.84;70.92;101513.59;1762065;81;20941;-42
2022/05/10 03:52:57;;;;;;;3.15;2.00;;;;;;;5.23;69.31;101509.70;1763193;81;20893;-42
2022/05/10 03:55:27;;;;;;;5.10;1.90;;;;;;;5.65;67.84;101508.79;1763193;80;21716;-43
2022/05/10 03:57:54;;;;;;;7.72;1.90;;;;;;;6.02;65.34;101514.64;1736981;81;20937;-42
2022/05/10 04:00:25;;;;;;;3.45;1.90;;;;;;;6.34;63.57;101510.89;1763015;80;21060;-43
2022/05/10 04:02:55;;;;;;;3.30;1.27;;;;;;;6.67;60.90;101513.93;1763013;81;20976;-42
2022/05/10 04:05:49;;;;;;;6.05;1.90;;;;;;;6.93;60.15;101498.88;1763020;80;20948;-42
2022/05/10 04:08:36;;;;;;;13.30;2.65;;;;;;;7.22;59.67;101515.55;1763119;81;20956;-42
2022/05/10 04:11:05;;;;;;;4.95;1.67;;;;;;;7.58;58.43;101512.54;1763161;81;21555;-41
2022/05/10 04:13:32;;;;;;;7.83;1.85;;;;;;;7.86;57.46;101514.52;1737011;81;21974;-42
2022/05/10 04:15:59;;;;;;;9.68;1.80;;;;;;;8.11;56.58;101514.75;1762910;81;20882;-42
2022/05/10 04:18:27;;;;;;;4.83;1.50;;;;;;;8.33;55.01;101522.23;1763005;81;20905;-42
2022/05/10 04:20:54;;;;;;;3.02;1.62;;;;;;;8.40;53.77;101511.13;1762979;81;20949;-41
2022/05/10 04:23:20;;;;;;;4.05;1.50;;;;;;;8.46;52.69;101512.86;1763191;81;20949;-41
2022/05/10 04:25:47;;;;;;;3.30;1.55;;;;;;;8.65;52.54;101512.63;1762978;81;21065;-41
2022/05/10 04:28:13;;;;;;;6.40;1.70;;;;;;;8.79;51.89;101514.00;1763065;81;20961;-42
2022/05/10 04:30:40;;;;;;;5.03;1.55;;;;;;;8.91;50.04;101509.33;1762877;81;20949;-41
2022/05/10 04:33:07;;;;;;;7.47;1.50;;;;;;;9.02;49.46;101510.23;1763048;81;21401;-41
2022/05/10 04:35:34;;;;;;;2.60;1.30;;;;;;;9.19;48.55;101514.17;1763071;81;20933;-42
2022/05/10 04:38:04;;;;;;;4.37;1.50;;;;;;;9.44;48.43;101510.84;1762979;81;21279;-42
2022/05/10 04:43:18;;;;;;;11.30;1.90;;;;;;;9.59;46.37;101504.39;1763350;81;20945;-42
2022/05/10 04:45:45;;;;;;;5.65;1.65;;;;;;;9.77;46.92;101501.42;1763054;81;20984;-41
2022/05/10 04:48:12;;;;;;;2.10;1.50;;;;;;;9.94;45.73;101501.44;1763068;80;20933;-41
2022/05/10 04:50:39;;;;;;;6.25;1.60;;;;;;;10.01;45.98;101508.78;1763033;81;21155;-41
2022/05/10 04:53:05;;;;;;;5.17;1.75;;;;;;;10.04;45.89;101501.91;1762828;81;20886;-41
2022/05/10 04:55:32;;;;;;;3.52;1.40;;;;;;;9.99;44.34;101507.51;1762893;81;21522;-42
2022/05/10 04:57:59;;;;;;;8.73;2.08;;;;;;;10.01;44.46;101505.78;1763036;81;21448;-42
2022/05/10 05:00:26;;;;;;;5.40;1.72;;;;;;;10.24;45.25;101519.58;1762972;81;21013;-43
2022/05/10 05:02:53;;;;;;;5.42;1.77;;;;;;;10.38;44.91;101513.98;1762977;81;21159;-42
2022/05/10 05:05:20;;;;;;;3.58;1.45;;;;;;;10.43;43.17;101508.81;1763037;81;20941;-42
2022/05/10 05:07:46;;;;;;;4.05;1.92;;;;;;;10.44;42.88;101505.35;1762794;81;21012;-42
2022/05/10 05:10:13;;;;;;;2.30;1.52;;;;;;;10.47;43.08;101508.81;1762881;80;21454;-42
2022/05/10 05:12:40;;;;;;;3.40;1.77;;;;;;;10.55;41.41;101505.34;1762869;81;20999;-42
2022/05/10 05:15:10;;;;;;;3.87;2.47;;;;;;;10.63;42.44;101513.53;1762974;81;21138;-43
2022/05/10 05:17:38;;;;;;;2.42;1.57;;;;;;;10.80;42.46;101500.11;1762127;81;20996;-41
2022/05/10 05:20:06;;;;;;;1.70;1.60;;;;;;;10.90;41.85;101501.83;1763029;81;20933;-41
2022/05/10 05:22:33;;;;;;;4.37;1.77;;;;;;;11.03;41.56;101510.42;1762854;81;20976;-43
2022/05/10 05:25:00;;;;;;;6.97;1.60;;;;;;;11.09;41.55;101505.63;1762987;81;20934;-43
2022/05/10 05:27:27;;;;;;;7.03;2.33;;;;;;;11.16;41.12;101506.05;1762881;81;21085;-42
2022/05/10 05:29:55;;;;;;;3.85;1.35;;;;;;;11.30;40.90;101502.10;1762963;81;20937;-43
2022/05/10 05:32:25;;;;;;;12.25;1.80;;;;;;;11.64;40.57;101510.98;1763110;81;21492;-43
2022/05/10 05:34:52;;;;;;;3.83;1.40;;;;;;;11.78;39.81;101503.98;1762792;81;20941;-41
2022/05/10 05:37:34;;;;;;;6.72;1.45;;;;;;;11.80;39.82;101507.85;1763113;81;20976;-41
2022/05/10 05:40:10;;;;;;;3.37;1.57;;;;;;;11.96;39.91;101505.16;1762989;81;21250;-42
2022/05/10 05:42:37;;;;;;;9.45;1.90;;;;;;;12.26;39.64;101495.43;1762924;81;21385;-42
2022/05/10 05:45:07;;;;;;;3.52;1.70;;;;;;;12.54;40.10;101489.97;1763030;81;20881;-43
2022/05/10 05:47:35;;;;;;;1.80;1.32;;;;;;;12.65;39.34;101488.14;1726501;81;21003;-43
2022/05/10 05:50:05;;;;;;;3.42;1.98;;;;;;;12.67;39.00;101490.70;1771270;81;20894;-44
2022/05/10 05:52:35;;;;;;;4.85;1.40;;;;;;;12.63;37.64;101479.47;1770910;81;21439;-43
2022/05/10 05:55:02;;;;;;;2.45;1.27;;;;;;;12.86;36.98;101477.94;1770760;81;21475;-43
2022/05/10 05:57:29;;;;;;;2.40;1.27;;;;;;;13.07;37.26;101483.76;1770904;81;20972;-43
2022/05/10 05:59:56;;;;;;;3.72;1.35;;;;;;;13.22;35.51;101481.41;1770753;81;20925;-43
2022/05/10 06:02:23;;;;;;;2.95;1.22;;;;;;;13.28;36.18;101478.71;1770620;81;21534;-43
2022/05/10 06:04:50;;;;;;;2.42;1.30;;;;;;;13.32;36.31;101479.08;1770746;81;21011;-43
2022/05/10 06:07:18;;;;;;;1.65;1.17;;;;;;;13.33;36.79;101473.45;1744908;81;20969;-43
2022/05/10 06:09:46;;;;;;;2.67;1.20;;;;;;;13.28;34.51;101477.87;1771103;81;20965;-43
2022/05/10 06:12:16;;;;;;;3.33;1.20;;;;;;;13.37;34.39;101473.83;1771132;81;21478;-43
2022/05/10 06:14:43;;;;;;;4.95;1.60;;;;;;;13.37;34.73;101475.97;1770758;81;20964;-43
2022/05/10 06:17:11;;;;;;;3.30;1.22;;;;;;;13.43;34.94;101469.87;1770786;81;21953;-44
2022/05/10 06:19:39;;;;;;;5.30;1.72;;;;;;;13.70;36.04;101466.89;1770910;81;21016;-42
2022/05/10 06:22:07;;;;;;;8.73;2.12;;;;;;;13.79;34.55;101468.91;1770803;81;21424;-43
2022/05/10 06:24:34;;;;;;;26.52;1.90;;;;;;;13.74;32.68;101462.90;1771008;81;21497;-42
2022/05/10 06:27:02;;;;;;;10.28;1.45;;;;;;;13.82;33.44;101463.24;1770914;81;20937;-43
2022/05/10 06:29:29;;;;;;;3.05;1.22;;;;;;;13.88;33.49;101463.98;1771238;81;21262;-43
2022/05/10 06:31:56;;;;;;;1.70;0.93;;;;;;;13.91;33.24;101457.45;1770789;81;20964;-43
2022/05/10 06:34:22;;;;;;;6.22;1.10;;;;;;;14.00;33.17;101455.11;1770998;80;20970;-42
2022/05/10 06:36:49;;;;;;;2.25;1.07;;;;;;;14.04;31.02;101450.30;1770648;81;21023;-43
2022/05/10 06:39:15;;;;;;;2.10;1.22;;;;;;;14.03;32.12;101452.91;1771072;81;20920;-44
2022/05/10 06:41:42;;;;;;;28.30;1.90;;;;;;;14.22;31.93;101446.50;1770987;81;21232;-43
2022/05/10 06:44:09;;;;;;;8.35;1.20;;;;;;;14.48;32.76;101446.47;1771170;81;21507;-43
2022/05/10 06:46:37;;;;;;;3.10;1.35;;;;;;;14.68;32.99;101448.26;1771019;81;20969;-44
2022/05/10 06:49:04;;;;;;;16.10;1.60;;;;;;;14.86;32.97;101447.92;1764131;81;20992;-44
2022/05/10 06:51:31;;;;;;;4.70;1.22;;;;;;;14.88;32.92;101443.97;1763171;81;20905;-42
2022/05/10 06:53:58;;;;;;;16.65;1.92;;;;;;;14.83;33.50;101443.21;1762984;81;21261;-44
2022/05/10 06:56:24;;;;;;;14.45;1.92;;;;;;;14.94;32.85;101443.86;1737106;81;21436;-42
2022/05/10 06:58:52;;;;;;;5.97;1.60;;;;;;;15.03;32.26;101432.35;1763162;80;21273;-43
2022/05/10 07:01:19;;;;;;;3.72;1.02;;;;;;;15.03;30.82;101437.57;1763036;81;20973;-44
2022/05/10 07:03:48;;;;;;;3.37;1.27;;;;;;;15.12;29.26;101445.22;1762971;81;21404;-42
2022/05/10 07:06:18;;;;;;;3.98;1.47;;;;;;;15.18;28.43;101434.64;1763025;81;21124;-43
2022/05/10 07:08:44;;;;;;;7.37;1.20;;;;;;;15.30;27.41;101430.06;1762987;81;21492;-44
2022/05/10 07:11:12;;;;;;;2.70;1.25;;;;;;;15.36;28.37;101432.52;1763036;81;20930;-43
2022/05/10 07:13:38;;;;;;;3.72;1.20;;;;;;;15.30;27.39;101428.75;1762979;81;21424;-43
2022/05/10 07:16:07;;;;;;;3.42;1.32;;;;;;;15.33;28.82;101429.98;1763047;81;20913;-42
2022/05/10 07:18:34;;;;;;;8.98;1.20;;;;;;;15.21;27.93;101408.48;1762803;81;21041;-42
2022/05/10 07:21:00;;;;;;;1.72;1.12;;;;;;;15.27;27.40;101425.76;1763157;81;21514;-42
2022/05/10 07:23:30;;;;;;;3.47;1.22;;;;;;;15.45;25.58;101431.45;1762945;81;20890;-42
2022/05/10 07:25:58;;;;;;;5.78;1.50;;;;;;;15.37;24.77;101428.55;1763000;81;21032;-43
2022/05/10 07:28:29;;;;;;;5.30;1.95;;;;;;;15.11;25.50;101423.07;1763309;81;21454;-43
2022/05/10 07:30:56;;;;;;;1.55;1.00;;;;;;;15.02;25.97;101431.52;1763195;81;21138;-44
2022/05/10 07:33:22;;;;;;;0.90;0.90;;;;;;;14.89;25.63;101428.31;1762983;81;21012;-42
2022/05/10 07:38:38;;;;;;;4.65;1.27;;;;;;;14.47;25.22;101430.85;1763293;81;21064;-42
2022/05/10 07:41:05;;;;;;;1.42;1.25;;;;;;;13.99;25.87;101428.66;1763084;81;21040;-43
2022/05/10 07:43:35;;;;;;;5.35;1.70;;;;;;;13.99;27.23;101418.71;1762948;81;22192;-43
2022/05/10 07:46:02;;;;;;;2.50;1.62;;;;;;;14.32;27.14;101416.37;1762762;81;20917;-43
2022/05/10 07:48:29;;;;;;;6.08;1.62;;;;;;;14.80;26.21;101415.48;1755937;80;20992;-43
2022/05/10 07:50:56;;;;;;;1.52;1.25;;;;;;;15.38;25.43;101413.77;1746859;80;20968;-42
2022/05/10 07:53:23;;;;;;;1.95;1.30;;;;;;;15.91;23.33;101404.27;1746931;80;20921;-43
2022/05/10 07:55:50;;;;;;;2.20;1.25;;;;;;;16.23;23.98;101392.53;1746653;80;21222;-43
2022/05/10 07:58:17;;;;;;;2.52;1.27;;;;;;;16.34;24.46;101394.84;1746634;82;20952;-43
2022/05/10 08:00:44;;;;;;;7.05;1.42;;;;;;;15.99;24.08;101390.98;1746660;80;21483;-43
2022/05/10 08:03:15;;;;;;;1.00;1.00;;;;;;;15.63;23.85;101391.84;1746679;82;20991;-43
2022/05/10 08:05:42;;;;;;;4.55;1.30;;;;;;;15.39;25.63;101398.53;1746863;82;21494;-42
2022/05/10 08:08:11;;;;;;;2.20;1.25;;;;;;;15.39;25.34;101398.53;1746898;81;21386;-44
2022/05/10 08:10:41;;;;;;;1.70;1.52;;;;;;;15.52;24.87;101396.02;1746582;81;20963;-43
2022/05/10 08:13:14;;;;;;;6.15;1.17;;;;;;;15.38;24.54;101388.99;1746122;82;20861;-43
2022/05/10 08:15:41;;;;;;;3.77;1.25;;;;;;;15.19;25.75;101392.02;1745271;82;20988;-43
2022/05/10 08:18:07;;;;;;;1.30;1.20;;;;;;;14.99;24.37;101391.61;1725458;82;21459;-43
2022/05/10 08:20:35;;;;;;;4.30;1.80;;;;;;;14.73;24.53;101394.33;1746933;82;21922;-43
2022/05/10 08:23:01;;;;;;;2.85;1.67;;;;;;;14.74;25.48;101397.34;1746616;81;20944;-43
2022/05/10 08:25:28;;;;;;;3.20;1.75;;;;;;;14.71;25.04;101396.98;1746773;82;21058;-43
2022/05/10 08:27:55;;;;;;;4.50;1.40;;;;;;;14.61;24.96;101391.50;1746750;82;21011;-42
2022/05/10 08:30:21;;;;;;;4.20;1.50;;;;;;;14.30;25.68;101387.78;1746779;82;21548;-43
2022/05/10 08:32:50;;;;;;;4.35;1.40;;;;;;;14.20;26.54;101382.31;1746814;82;21253;-43
2022/05/10 08:35:16;;;;;;;1.60;1.22;;;;;;;14.46;26.28;101392.67;1746589;81;20889;-43
2022/05/10 08:37:43;;;;;;;6.28;1.47;;;;;;;14.68;24.98;101381.81;1746853;82;20961;-42
2022/05/10 08:40:30;;;;;;;4.00;1.52;;;;;;;14.98;24.59;101374.25;1746691;80;20971;-42
2022/05/10 08:43:01;;;;;;;4.97;1.40;;;;;;;15.40;24.51;101368.94;1746648;82;20912;-42
2022/05/10 08:45:28;;;;;;;4.40;1.50;;;;;;;15.54;24.43;101373.82;1746732;82;21123;-43
2022/05/10 08:47:55;;;;;;;5.17;1.47;;;;;;;15.58;25.33;101370.23;1746807;80;20949;-43
2022/05/10 08:50:21;;;;;;;1.40;1.20;;;;;;;15.89;25.87;101363.41;1749263;81;21596;-43
2022/05/10 08:52:51;;;;;;;1.87;1.12;;;;;;;16.33;24.30;101363.97;1749398;82;20932;-44
2022/05/10 08:55:26;;;;;;;1.47;0.95;;;;;;;16.66;24.87;101363.02;1749429;82;20845;-42
2022/05/10 08:57:59;;;;;;;2.67;1.00;;;;;;;16.68;23.09;101357.75;1722120;82;21245;-43
2022/05/10 09:00:32;;;;;;;1.22;0.93;;;;;;;16.68;22.83;101349.91;1749288;82;20885;-45
2022/05/10 09:03:01;;;;;;;4.95;1.42;;;;;;;16.83;21.44;101364.27;1749541;82;20881;-44
2022/05/10 09:05:42;;;;;;;7.35;1.30;;;;;;;16.65;22.41;101354.33;1749429;82;20924;-44
2022/05/10 09:08:51;;;;;;;6.55;1.67;;;;;;;16.19;23.08;101356.52;1749291;80;20885;-44
2022/05/10 09:11:19;;;;;;;4.33;1.10;;;;;;;15.84;23.49;101345.22;1733896;82;21340;-44
2022/05/10 09:13:46;;;;;;;1.37;1.00;;;;;;;15.64;22.91;101351.81;1721807;82;20959;-44
2022/05/10 09:16:13;;;;;;;3.55;1.27;;;;;;;15.43;23.28;101349.77;1749356;82;21474;-42
2022/05/10 09:18:54;;;;;;;1.60;0.90;;;;;;;15.41;23.50;101334.13;1749188;82;21466;-44
2022/05/10 09:21:46;;;;;;;1.55;1.00;;;;;;;15.79;24.24;101344.06;1749328;82;21003;-43
2022/05/10 09:24:29;;;;;;;3.25;1.00;;;;;;;16.05;22.39;101332.09;1749357;81;22969;-43
2022/05/10 09:27:00;;;;;;;0.82;0.82;;;;;;;16.14;22.34;101341.40;1749282;82;20889;-43
2022/05/10 09:29:37;;;;;;;1.67;1.22;;;;;;;16.27;22.38;101331.93;1722410;82;20968;-43
2022/05/10 09:35:21;;;;;;;2.02;0.90;;;;;;;17.03;20.75;101316.61;1749424;82;21007;-43
2022/05/10 09:37:58;;;;;;;5.70;1.22;;;;;;;17.23;22.30;101323.38;1749354;82;21205;-44
2022/05/10 09:40:36;;;;;;;4.00;1.12;;;;;;;17.02;20.86;101329.28;1749350;82;20960;-44
2022/05/10 09:43:28;;;;;;;1.40;1.05;;;;;;;16.63;22.06;101327.82;1749342;82;20933;-43
2022/05/10 09:46:16;;;;;;;1.42;0.90;;;;;;;16.45;21.82;101314.86;1749367;81;20884;-44
2022/05/10 09:48:43;;;;;;;6.85;1.45;;;;;;;16.65;22.33;101306.41;1749263;80;20991;-44
2022/05/10 09:51:41;;;;;;;2.83;0.90;;;;;;;16.69;21.91;101300.22;1749253;82;21326;-45
2022/05/10 09:54:21;;;;;;;0.90;0.90;;;;;;;16.59;21.62;101303.55;1749188;81;20971;-44
2022/05/10 09:56:56;;;;;;;1.12;1.02;;;;;;;16.76;22.61;101294.33;1749410;82;20925;-45
2022/05/10 09:59:30;;;;;;;0.80;0.80;;;;;;;17.15;21.78;101287.89;1749169;82;20928;-43
2022/05/10 10:04:37;;;;;;;2.02;0.85;;;;;;;17.37;20.09;101288.06;1798348;79;22125;-44
2022/05/10 10:07:17;;;;;;;7.92;0.98;;;;;;;17.00;20.56;101293.17;1757749;81;20937;-44
2022/05/10 10:09:48;;;;;;;3.02;0.80;;;;;;;16.61;20.86;101288.69;1757990;81;21167;-43
2022/05/10 10:12:35;;;;;;;8.03;1.17;;;;;;;16.55;21.96;101284.09;1724358;83;21027;-43
2022/05/10 10:15:32;;;;;;;1.60;1.10;;;;;;;16.53;21.67;101285.42;1723899;83;21484;-43
2022/05/10 10:18:04;;;;;;;1.82;0.72;;;;;;;16.58;21.50;101272.23;1724623;83;21006;-45
2022/05/10 10:20:53;;;;;;;5.80;1.00;;;;;;;16.55;21.83;101271.89;1724516;83;20983;-43
2022/05/10 10:23:36;;;;;;;1.35;1.17;;;;;;;16.33;22.44;101269.92;1724604;83;21150;-43
2022/05/10 10:26:43;;;;;;;2.10;1.00;;;;;;;16.29;23.13;101273.50;1723957;83;20975;-44
2022/05/10 10:29:20;;;;;;;3.33;1.20;;;;;;;16.27;22.73;101265.32;1666704;82;21618;-43
2022/05/10 10:31:57;;;;;;;5.78;1.47;;;;;;;16.59;22.37;101266.97;1637609;86;21613;-43
2022/05/10 10:34:40;;;;;;;1.07;1.00;;;;;;;17.04;22.19;101258.17;1694945;83;20955;-43
2022/05/10 10:37:16;;;;;;;2.85;1.02;;;;;;;17.15;21.66;101256.07;1695984;83;21265;-43
2022/05/10 10:39:54;;;;;;;1.57;1.20;;;;;;;16.93;22.01;101248.89;1724402;83;20974;-43
2022/05/10 10:42:33;;;;;;;3.47;1.82;;;;;;;16.76;23.04;101254.67;1722212;83;21027;-43
2022/05/10 10:45:00;;;;;;;9.38;1.37;;;;;;;16.37;23.53;101248.02;1698144;84;21015;-43
2022/05/10 10:47:42;;;;;;;8.45;1.82;;;;;;;16.21;23.54;101239.80;1716633;83;21465;-43
2022/05/10 10:50:29;;;;;;;2.62;1.62;;;;;;;16.49;23.53;101240.70;1708918;83;22006;-42
2022/05/10 10:52:58;;;;;;;8.18;1.75;;;;;;;16.59;23.29;101242.14;1709173;83;20951;-45
2022/05/10 10:55:38;;;;;;;2.55;0.90;;;;;;;16.41;22.78;101240.09;1709153;84;20951;-45
2022/05/10 10:58:28;;;;;;;1.50;1.32;;;;;;;16.14;23.37;101245.23;1709003;84;21498;-44
2022/05/10 11:01:19;;;;;;;4.75;0.98;;;;;;;15.93;24.72;101243.64;1709249;84;20971;-44
2022/05/10 11:04:07;;;;;;;16.60;1.45;;;;;;;15.66;24.67;101250.00;1659350;84;21271;-43
2022/05/10 11:06:43;;;;;;;11.53;1.37;;;;;;;15.42;25.71;101241.94;1696516;84;20996;-43
2022/05/10 11:09:35;;;;;;;144.10;10.80;;;;;;;15.38;25.92;101236.39;1696406;84;21423;-43
2022/05/10 11:12:49;;;;;;;5.20;1.30;;;;;;;15.50;25.85;101226.92;1696179;84;21004;-44
2022/05/10 11:15:46;;;;;;;5.90;1.10;;;;;;;15.90;25.03;101224.16;1639184;86;21076;-44
2022/05/10 11:18:42;;;;;;;1.25;1.05;;;;;;;16.35;24.06;101218.91;1638962;87;21953;-45
2022/05/10 11:21:35;;;;;;;5.65;1.00;;;;;;;16.38;23.91;101217.08;1682148;84;20960;-42
2022/05/10 11:24:14;;;;;;;13.03;1.98;;;;;;;16.74;23.71;101208.12;1696024;83;20971;-43
2022/05/10 11:27:23;;;;;;;6.47;1.12;;;;;;;17.04;25.02;101202.81;1666078;84;20993;-45
2022/05/10 11:30:08;;;;;;;8.85;1.27;;;;;;;17.22;23.38;101207.86;1696077;84;21062;-45
2022/05/10 11:33:16;;;;;;;4.65;1.47;;;;;;;17.36;23.19;101196.08;1695788;84;21915;-44
2022/05/10 11:36:17;;;;;;;1.92;1.20;;;;;;;17.22;24.30;101197.40;1695932;83;20972;-44
2022/05/10 11:39:09;;;;;;;5.85;1.12;;;;;;;16.71;25.44;101192.55;1696002;84;20917;-44
2022/05/10 11:42:12;;;;;;;7.03;0.95;;;;;;;16.61;25.12;101184.14;1695928;83;20960;-44
2022/05/10 11:45:04;;;;;;;3.83;1.20;;;;;;;16.35;24.94;101188.88;1695964;84;21561;-44
2022/05/10 11:48:09;;;;;;;7.62;1.20;;;;;;;16.22;25.40;101180.13;1695600;83;21274;-44
2022/05/10 11:54:41;;;;;;;4.80;0.88;;;;;;;16.61;26.63;101163.23;1695818;84;20968;-43
2022/05/10 11:57:17;;;;;;;4.17;1.10;;;;;;;16.86;25.26;101163.73;1696011;83;20925;-44
2022/05/10 11:59:45;;;;;;;4.55;1.37;;;;;;;16.66;24.96;101162.63;1695788;83;20996;-44
2022/05/10 12:02:35;;;;;;;1.75;0.82;;;;;;;16.59;24.13;101158.52;1696088;84;21266;-44
2022/05/10 12:05:28;;;;;;;8.25;1.20;;;;;;;16.80;21.69;101165.25;1695949;84;20917;-44
2022/05/10 12:08:01;;;;;;;3.90;1.05;;;;;;;16.65;24.08;101147.85;1669283;84;21461;-44
2022/05/10 12:10:38;;;;;;;2.98;0.75;;;;;;;16.61;24.04;101151.91;1695805;83;21015;-43
2022/05/10 12:13:08;;;;;;;5.17;1.10;;;;;;;16.70;23.58;101137.25;1695936;84;20944;-43
2022/05/10 12:21:52;;;;;;;2.12;1.02;;;;;;;16.63;22.89;101137.03;1695959;84;20966;-44
2022/05/10 12:24:28;;;;;;;6.60;1.20;;;;;;;16.14;23.96;101139.47;1695817;83;20988;-42